sensor_id;sensor_type;location;lat;lon;timestamp;temperature;humidity
32698;DHT22;19087;51.062;3.754;2023-09-08T00:02:05;21.80;99.90
32698;DHT22;19087;51.062;3.754;2023-09-08T00:04:31;21.80;99.90
32698;DHT22;19087;51.062;3.754;2023-09-08T00:06:58;21.70;99.90
32698;DHT22;19087;51.062;3.754;2023-09-08T00:09:24;21.70;99.90
32698;DHT22;19087;51.062;3.754;2023-09-08T00:11:50;21.70;99.90
32698;DHT22;19087;51.062;3.754;2023-09-08T00:14:15;21.80;99.90
32698;DHT22;19087;51.062;3.754;2023-09-08T00:16:41;21.70;99.90
32698;DHT22;19087;51.062;3.754;2023-09-08T00:19:09;21.70;99.90
32698;DHT22;19087;51.062;3.754;2023-09-08T00:21:36;21.60;99.90
32698;DHT22;19087;51.062;3.754;2023-09-08T00:24:02;21.60;99.90
32698;DHT22;19087;51.062;3.754;2023-09-08T00:26:29;21.70;99.90
32698;DHT22;19087;51.062;3.754;2023-09-08T00:28:55;21.60;99.90
32698;DHT22;19087;51.062;3.754;2023-09-08T00:31:21;21.60;99.90
32698;DHT22;19087;51.062;3.754;2023-09-08T00:33:46;21.60;99.90
32698;DHT22;19087;51.062;3.754;2023-09-08T00:36:12;21.50;99.90
32698;DHT22;19087;51.062;3.754;2023-09-08T00:38:38;21.50;99.90
32698;DHT22;19087;51.062;3.754;2023-09-08T00:41:07;21.50;99.90
32698;DHT22;19087;51.062;3.754;2023-09-08T00:43:33;21.50;99.90
32698;DHT22;19087;51.062;3.754;2023-09-08T00:45:59;21.50;99.90
32698;DHT22;19087;51.062;3.754;2023-09-08T00:48:26;21.50;99.90
32698;DHT22;19087;51.062;3.754;2023-09-08T00:50:53;21.50;99.90
32698;DHT22;19087;51.062;3.754;2023-09-08T00:53:19;21.40;99.90
32698;DHT22;19087;51.062;3.754;2023-09-08T00:55:45;21.40;99.90
32698;DHT22;19087;51.062;3.754;2023-09-08T00:58:11;21.40;99.90
32698;DHT22;19087;51.062;3.754;2023-09-08T01:00:37;21.40;99.90
32698;DHT22;19087;51.062;3.754;2023-09-08T01:03:03;21.40;99.90
32698;DHT22;19087;51.062;3.754;2023-09-08T01:05:29;21.30;99.90
32698;DHT22;19087;51.062;3.754;2023-09-08T01:07:56;21.30;99.90
32698;DHT22;19087;51.062;3.754;2023-09-08T01:10:23;21.30;99.90
32698;DHT22;19087;51.062;3.754;2023-09-08T01:12:49;21.30;99.90
32698;DHT22;19087;51.062;3.754;2023-09-08T01:15:15;21.30;99.90
32698;DHT22;19087;51.062;3.754;2023-09-08T01:17:40;21.20;99.90
32698;DHT22;19087;51.062;3.754;2023-09-08T01:25:37;21.10;99.90
32698;DHT22;19087;51.062;3.754;2023-09-08T01:28:06;21.10;99.90
32698;DHT22;19087;51.062;3.754;2023-09-08T01:30:32;21.10;99.90
32698;DHT22;19087;51.062;3.754;2023-09-08T01:32:59;21.10;99.90
32698;DHT22;19087;51.062;3.754;2023-09-08T01:35:25;21.10;99.90
32698;DHT22;19087;51.062;3.754;2023-09-08T01:37:52;21.10;99.90
32698;DHT22;19087;51.062;3.754;2023-09-08T01:40:17;21.00;99.90
32698;DHT22;19087;51.062;3.754;2023-09-08T01:42:47;21.00;99.90
32698;DHT22;19087;51.062;3.754;2023-09-08T01:45:14;21.00;99.90
32698;DHT22;19087;51.062;3.754;2023-09-08T01:47:40;21.00;99.90
32698;DHT22;19087;51.062;3.754;2023-09-08T01:50:06;20.90;99.90
32698;DHT22;19087;51.062;3.754;2023-09-08T01:52:32;21.00;99.90
32698;DHT22;19087;51.062;3.754;2023-09-08T01:54:57;20.90;99.90
32698;DHT22;19087;51.062;3.754;2023-09-08T01:57:23;20.90;99.90
32698;DHT22;19087;51.062;3.754;2023-09-08T01:59:50;20.90;99.90
32698;DHT22;19087;51.062;3.754;2023-09-08T02:02:15;20.90;99.90
32698;DHT22;19087;51.062;3.754;2023-09-08T02:04:43;20.90;99.90
32698;DHT22;19087;51.062;3.754;2023-09-08T02:07:09;20.90;99.90
32698;DHT22;19087;51.062;3.754;2023-09-08T02:09:36;20.90;99.90
32698;DHT22;19087;51.062;3.754;2023-09-08T02:12:03;20.90;99.90
32698;DHT22;19087;51.062;3.754;2023-09-08T02:14:29;20.80;99.90
32698;DHT22;19087;51.062;3.754;2023-09-08T02:16:55;20.80;99.90
32698;DHT22;19087;51.062;3.754;2023-09-08T02:19:21;20.80;99.90
32698;DHT22;19087;51.062;3.754;2023-09-08T02:21:47;20.80;99.90
32698;DHT22;19087;51.062;3.754;2023-09-08T02:24:12;20.80;99.90
32698;DHT22;19087;51.062;3.754;2023-09-08T02:26:38;20.70;99.90
32698;DHT22;19087;51.062;3.754;2023-09-08T02:29:05;20.70;99.90
32698;DHT22;19087;51.062;3.754;2023-09-08T02:31:30;20.70;99.90
32698;DHT22;19087;51.062;3.754;2023-09-08T02:33:56;20.70;99.90
32698;DHT22;19087;51.062;3.754;2023-09-08T02:36:22;20.70;99.90
32698;DHT22;19087;51.062;3.754;2023-09-08T02:38:56;20.60;99.90
32698;DHT22;19087;51.062;3.754;2023-09-08T02:41:22;20.60;99.90
32698;DHT22;19087;51.062;3.754;2023-09-08T02:43:48;20.60;99.90
32698;DHT22;19087;51.062;3.754;2023-09-08T02:46:14;20.60;99.90
32698;DHT22;19087;51.062;3.754;2023-09-08T02:48:41;20.60;99.90
32698;DHT22;19087;51.062;3.754;2023-09-08T02:51:07;20.70;99.90
32698;DHT22;19087;51.062;3.754;2023-09-08T02:53:32;20.60;99.90
32698;DHT22;19087;51.062;3.754;2023-09-08T02:56:00;20.60;99.90
32698;DHT22;19087;51.062;3.754;2023-09-08T02:58:26;20.60;99.90
32698;DHT22;19087;51.062;3.754;2023-09-08T03:00:52;20.50;99.90
32698;DHT22;19087;51.062;3.754;2023-09-08T03:03:19;20.50;99.90
32698;DHT22;19087;51.062;3.754;2023-09-08T03:05:45;20.50;99.90
32698;DHT22;19087;51.062;3.754;2023-09-08T03:08:12;20.40;99.90
32698;DHT22;19087;51.062;3.754;2023-09-08T03:10:37;20.40;99.90
32698;DHT22;19087;51.062;3.754;2023-09-08T03:13:04;20.40;99.90
32698;DHT22;19087;51.062;3.754;2023-09-08T03:15:30;20.40;99.90
32698;DHT22;19087;51.062;3.754;2023-09-08T03:17:56;20.40;99.90
32698;DHT22;19087;51.062;3.754;2023-09-08T03:20:24;20.30;99.90
32698;DHT22;19087;51.062;3.754;2023-09-08T03:22:51;20.30;99.90
32698;DHT22;19087;51.062;3.754;2023-09-08T03:25:17;20.20;99.90
32698;DHT22;19087;51.062;3.754;2023-09-08T03:27:43;20.20;99.90
32698;DHT22;19087;51.062;3.754;2023-09-08T03:30:09;20.30;99.90
32698;DHT22;19087;51.062;3.754;2023-09-08T03:32:35;20.20;99.90
32698;DHT22;19087;51.062;3.754;2023-09-08T03:35:01;20.20;99.90
32698;DHT22;19087;51.062;3.754;2023-09-08T03:37:26;20.20;99.90
32698;DHT22;19087;51.062;3.754;2023-09-08T03:39:53;20.10;99.90
32698;DHT22;19087;51.062;3.754;2023-09-08T03:42:18;20.10;99.90
32698;DHT22;19087;51.062;3.754;2023-09-08T03:44:44;20.10;99.90
32698;DHT22;19087;51.062;3.754;2023-09-08T03:47:10;20.10;99.90
32698;DHT22;19087;51.062;3.754;2023-09-08T03:49:36;20.10;99.90
32698;DHT22;19087;51.062;3.754;2023-09-08T03:52:01;20.00;99.90
32698;DHT22;19087;51.062;3.754;2023-09-08T03:54:27;20.00;99.90
32698;DHT22;19087;51.062;3.754;2023-09-08T03:56:53;20.00;99.90
32698;DHT22;19087;51.062;3.754;2023-09-08T03:59:19;20.00;99.90
32698;DHT22;19087;51.062;3.754;2023-09-08T04:01:45;20.00;99.90
32698;DHT22;19087;51.062;3.754;2023-09-08T04:04:10;20.00;99.90
32698;DHT22;19087;51.062;3.754;2023-09-08T04:06:36;20.00;99.90
32698;DHT22;19087;51.062;3.754;2023-09-08T04:09:03;19.90;99.90
32698;DHT22;19087;51.062;3.754;2023-09-08T04:11:29;19.90;99.90
32698;DHT22;19087;51.062;3.754;2023-09-08T04:13:54;19.90;99.90
32698;DHT22;19087;51.062;3.754;2023-09-08T04:16:20;19.90;99.90
32698;DHT22;19087;51.062;3.754;2023-09-08T04:18:47;19.80;99.90
32698;DHT22;19087;51.062;3.754;2023-09-08T04:21:13;19.80;99.90
32698;DHT22;19087;51.062;3.754;2023-09-08T04:23:40;19.80;99.90
32698;DHT22;19087;51.062;3.754;2023-09-08T04:26:06;19.80;99.90
32698;DHT22;19087;51.062;3.754;2023-09-08T04:28:32;19.80;99.90
32698;DHT22;19087;51.062;3.754;2023-09-08T04:30:58;19.80;99.90
32698;DHT22;19087;51.062;3.754;2023-09-08T04:33:26;19.80;99.90
32698;DHT22;19087;51.062;3.754;2023-09-08T04:35:51;19.80;99.90
32698;DHT22;19087;51.062;3.754;2023-09-08T04:38:17;19.80;99.90
32698;DHT22;19087;51.062;3.754;2023-09-08T04:40:45;19.70;99.90
32698;DHT22;19087;51.062;3.754;2023-09-08T04:43:11;19.70;99.90
32698;DHT22;19087;51.062;3.754;2023-09-08T04:45:37;19.70;99.90
32698;DHT22;19087;51.062;3.754;2023-09-08T04:48:04;19.70;99.90
32698;DHT22;19087;51.062;3.754;2023-09-08T04:50:29;19.70;99.90
32698;DHT22;19087;51.062;3.754;2023-09-08T04:52:56;19.70;99.90
32698;DHT22;19087;51.062;3.754;2023-09-08T04:55:22;19.70;99.90
32698;DHT22;19087;51.062;3.754;2023-09-08T04:57:48;19.60;99.90
32698;DHT22;19087;51.062;3.754;2023-09-08T05:00:14;19.60;99.90
32698;DHT22;19087;51.062;3.754;2023-09-08T05:02:45;19.60;99.90
32698;DHT22;19087;51.062;3.754;2023-09-08T05:05:11;19.60;99.90
32698;DHT22;19087;51.062;3.754;2023-09-08T05:07:37;19.60;99.90
32698;DHT22;19087;51.062;3.754;2023-09-08T05:10:03;19.60;99.90
32698;DHT22;19087;51.062;3.754;2023-09-08T05:12:28;19.60;99.90
32698;DHT22;19087;51.062;3.754;2023-09-08T05:26:13;19.50;99.90
32698;DHT22;19087;51.062;3.754;2023-09-08T05:28:39;20.40;99.90
32698;DHT22;19087;51.062;3.754;2023-09-08T05:31:04;20.40;99.90
32698;DHT22;19087;51.062;3.754;2023-09-08T05:33:31;20.40;99.90
32698;DHT22;19087;51.062;3.754;2023-09-08T05:35:57;20.30;99.90
32698;DHT22;19087;51.062;3.754;2023-09-08T05:38:24;20.30;99.90
32698;DHT22;19087;51.062;3.754;2023-09-08T05:40:52;20.20;99.90
32698;DHT22;19087;51.062;3.754;2023-09-08T05:43:19;20.20;99.90
32698;DHT22;19087;51.062;3.754;2023-09-08T05:45:45;20.20;99.90
32698;DHT22;19087;51.062;3.754;2023-09-08T05:48:11;20.20;99.90
32698;DHT22;19087;51.062;3.754;2023-09-08T05:50:37;20.10;99.90
32698;DHT22;19087;51.062;3.754;2023-09-08T05:53:03;20.20;99.90
32698;DHT22;19087;51.062;3.754;2023-09-08T05:55:29;20.10;99.90
32698;DHT22;19087;51.062;3.754;2023-09-08T05:57:56;20.20;99.90
32698;DHT22;19087;51.062;3.754;2023-09-08T06:00:22;20.20;99.90
32698;DHT22;19087;51.062;3.754;2023-09-08T06:02:48;20.30;99.90
32698;DHT22;19087;51.062;3.754;2023-09-08T06:05:13;20.20;99.90
32698;DHT22;19087;51.062;3.754;2023-09-08T06:07:42;20.30;99.90
32698;DHT22;19087;51.062;3.754;2023-09-08T06:10:08;20.20;99.90
32698;DHT22;19087;51.062;3.754;2023-09-08T06:12:34;20.30;99.90
32698;DHT22;19087;51.062;3.754;2023-09-08T06:15:00;20.40;99.90
32698;DHT22;19087;51.062;3.754;2023-09-08T06:17:26;20.40;99.90
32698;DHT22;19087;51.062;3.754;2023-09-08T06:19:52;20.50;99.90
32698;DHT22;19087;51.062;3.754;2023-09-08T06:22:18;20.50;99.90
32698;DHT22;19087;51.062;3.754;2023-09-08T06:24:43;20.50;99.90
32698;DHT22;19087;51.062;3.754;2023-09-08T06:27:10;20.60;99.90
32698;DHT22;19087;51.062;3.754;2023-09-08T06:29:37;20.70;99.90
32698;DHT22;19087;51.062;3.754;2023-09-08T06:32:04;20.80;99.90
32698;DHT22;19087;51.062;3.754;2023-09-08T06:34:30;20.90;99.90
32698;DHT22;19087;51.062;3.754;2023-09-08T06:36:55;21.00;99.90
32698;DHT22;19087;51.062;3.754;2023-09-08T06:39:21;21.10;99.90
32698;DHT22;19087;51.062;3.754;2023-09-08T06:41:46;21.70;99.90
32698;DHT22;19087;51.062;3.754;2023-09-08T06:44:12;22.90;99.90
32698;DHT22;19087;51.062;3.754;2023-09-08T06:46:38;24.50;99.90
32698;DHT22;19087;51.062;3.754;2023-09-08T06:49:03;25.90;99.90
32698;DHT22;19087;51.062;3.754;2023-09-08T06:51:30;27.30;99.90
32698;DHT22;19087;51.062;3.754;2023-09-08T06:53:56;28.50;99.90
32698;DHT22;19087;51.062;3.754;2023-09-08T06:56:22;29.40;99.90
32698;DHT22;19087;51.062;3.754;2023-09-08T06:58:48;30.40;99.90
32698;DHT22;19087;51.062;3.754;2023-09-08T07:01:23;31.30;99.90
32698;DHT22;19087;51.062;3.754;2023-09-08T07:03:52;32.10;99.90
32698;DHT22;19087;51.062;3.754;2023-09-08T07:06:18;32.80;99.90
32698;DHT22;19087;51.062;3.754;2023-09-08T07:08:44;33.50;99.90
32698;DHT22;19087;51.062;3.754;2023-09-08T07:11:09;34.10;99.90
32698;DHT22;19087;51.062;3.754;2023-09-08T07:13:36;34.70;99.50
32698;DHT22;19087;51.062;3.754;2023-09-08T07:16:02;35.20;99.00
32698;DHT22;19087;51.062;3.754;2023-09-08T07:18:28;35.70;96.80
32698;DHT22;19087;51.062;3.754;2023-09-08T07:20:54;36.10;96.70
32698;DHT22;19087;51.062;3.754;2023-09-08T07:23:19;36.50;95.60
32698;DHT22;19087;51.062;3.754;2023-09-08T07:25:49;36.90;95.60
32698;DHT22;19087;51.062;3.754;2023-09-08T07:28:16;37.20;93.80
32698;DHT22;19087;51.062;3.754;2023-09-08T07:30:43;37.30;93.50
32698;DHT22;19087;51.062;3.754;2023-09-08T07:33:08;37.50;93.20
32698;DHT22;19087;51.062;3.754;2023-09-08T07:35:39;37.60;93.30
32698;DHT22;19087;51.062;3.754;2023-09-08T07:38:07;37.50;92.70
32698;DHT22;19087;51.062;3.754;2023-09-08T07:40:34;37.60;92.80
32698;DHT22;19087;51.062;3.754;2023-09-08T07:42:59;37.60;92.20
32698;DHT22;19087;51.062;3.754;2023-09-08T07:45:25;37.60;93.40
32698;DHT22;19087;51.062;3.754;2023-09-08T07:47:51;37.70;92.10
32698;DHT22;19087;51.062;3.754;2023-09-08T07:50:26;37.70;91.70
32698;DHT22;19087;51.062;3.754;2023-09-08T07:52:55;37.70;91.30
32698;DHT22;19087;51.062;3.754;2023-09-08T07:55:22;37.70;92.20
32698;DHT22;19087;51.062;3.754;2023-09-08T07:57:49;37.50;91.10
32698;DHT22;19087;51.062;3.754;2023-09-08T08:00:16;37.50;92.70
32698;DHT22;19087;51.062;3.754;2023-09-08T08:02:46;37.40;92.10
32698;DHT22;19087;51.062;3.754;2023-09-08T08:05:16;37.20;91.70
32698;DHT22;19087;51.062;3.754;2023-09-08T08:07:43;37.00;93.30
32698;DHT22;19087;51.062;3.754;2023-09-08T08:10:10;37.00;93.50
32698;DHT22;19087;51.062;3.754;2023-09-08T08:12:37;37.10;91.20
32698;DHT22;19087;51.062;3.754;2023-09-08T08:15:03;36.90;90.40
32698;DHT22;19087;51.062;3.754;2023-09-08T08:17:32;36.60;89.90
32698;DHT22;19087;51.062;3.754;2023-09-08T08:19:59;36.40;91.00
32698;DHT22;19087;51.062;3.754;2023-09-08T08:22:31;36.20;91.10
32698;DHT22;19087;51.062;3.754;2023-09-08T08:24:57;36.00;91.60
32698;DHT22;19087;51.062;3.754;2023-09-08T08:27:22;35.90;89.60
32698;DHT22;19087;51.062;3.754;2023-09-08T08:29:48;35.60;91.10
32698;DHT22;19087;51.062;3.754;2023-09-08T08:32:16;35.10;91.80
32698;DHT22;19087;51.062;3.754;2023-09-08T08:34:41;34.00;91.70
32698;DHT22;19087;51.062;3.754;2023-09-08T08:37:07;33.10;92.20
32698;DHT22;19087;51.062;3.754;2023-09-08T08:39:35;32.50;92.70
32698;DHT22;19087;51.062;3.754;2023-09-08T08:42:12;32.00;93.60
32698;DHT22;19087;51.062;3.754;2023-09-08T08:44:39;31.60;93.70
32698;DHT22;19087;51.062;3.754;2023-09-08T08:47:07;31.20;94.30
32698;DHT22;19087;51.062;3.754;2023-09-08T08:49:34;31.00;94.70
32698;DHT22;19087;51.062;3.754;2023-09-08T08:52:00;30.60;95.40
32698;DHT22;19087;51.062;3.754;2023-09-08T08:54:29;30.50;95.60
32698;DHT22;19087;51.062;3.754;2023-09-08T08:56:56;30.20;96.00
32698;DHT22;19087;51.062;3.754;2023-09-08T08:59:22;30.00;96.30
32698;DHT22;19087;51.062;3.754;2023-09-08T09:01:48;29.80;96.90
32698;DHT22;19087;51.062;3.754;2023-09-08T09:04:17;29.60;97.20
32698;DHT22;19087;51.062;3.754;2023-09-08T09:06:43;29.50;97.30
32698;DHT22;19087;51.062;3.754;2023-09-08T09:09:09;29.40;97.50
32698;DHT22;19087;51.062;3.754;2023-09-08T09:11:36;29.30;97.70
32698;DHT22;19087;51.062;3.754;2023-09-08T09:14:01;29.30;97.80
32698;DHT22;19087;51.062;3.754;2023-09-08T09:16:29;29.20;98.00
32698;DHT22;19087;51.062;3.754;2023-09-08T09:18:59;29.30;98.30
32698;DHT22;19087;51.062;3.754;2023-09-08T09:24:07;29.30;98.20
32698;DHT22;19087;51.062;3.754;2023-09-08T09:26:35;29.30;98.20
32698;DHT22;19087;51.062;3.754;2023-09-08T09:29:01;29.30;98.10
32698;DHT22;19087;51.062;3.754;2023-09-08T09:31:27;29.30;98.30
32698;DHT22;19087;51.062;3.754;2023-09-08T09:34:03;29.40;98.10
32698;DHT22;19087;51.062;3.754;2023-09-08T09:36:32;29.40;98.10
32698;DHT22;19087;51.062;3.754;2023-09-08T09:39:01;29.40;98.00
32698;DHT22;19087;51.062;3.754;2023-09-08T09:41:28;29.40;98.00
32698;DHT22;19087;51.062;3.754;2023-09-08T09:43:58;29.40;98.00
32698;DHT22;19087;51.062;3.754;2023-09-08T09:46:24;29.50;97.70
32698;DHT22;19087;51.062;3.754;2023-09-08T09:48:56;29.50;97.80
32698;DHT22;19087;51.062;3.754;2023-09-08T09:51:24;29.40;98.40
32698;DHT22;19087;51.062;3.754;2023-09-08T09:53:50;29.40;98.40
32698;DHT22;19087;51.062;3.754;2023-09-08T09:56:17;29.30;98.30
32698;DHT22;19087;51.062;3.754;2023-09-08T09:58:44;29.40;98.20
32698;DHT22;19087;51.062;3.754;2023-09-08T10:01:11;29.50;98.40
32698;DHT22;19087;51.062;3.754;2023-09-08T10:03:40;29.50;98.50
32698;DHT22;19087;51.062;3.754;2023-09-08T10:06:07;29.70;98.50
32698;DHT22;19087;51.062;3.754;2023-09-08T10:08:34;29.80;98.80
32698;DHT22;19087;51.062;3.754;2023-09-08T10:11:07;29.90;98.40
32698;DHT22;19087;51.062;3.754;2023-09-08T10:13:42;29.90;98.50
32698;DHT22;19087;51.062;3.754;2023-09-08T10:16:15;30.00;98.10
32698;DHT22;19087;51.062;3.754;2023-09-08T10:18:44;30.10;98.10
32698;DHT22;19087;51.062;3.754;2023-09-08T10:21:12;30.10;98.50
32698;DHT22;19087;51.062;3.754;2023-09-08T10:23:44;30.10;98.20
32698;DHT22;19087;51.062;3.754;2023-09-08T10:26:14;30.10;98.30
32698;DHT22;19087;51.062;3.754;2023-09-08T10:28:42;30.20;98.10
32698;DHT22;19087;51.062;3.754;2023-09-08T10:31:09;30.30;97.70
32698;DHT22;19087;51.062;3.754;2023-09-08T10:33:36;30.40;97.70
32698;DHT22;19087;51.062;3.754;2023-09-08T10:36:03;30.40;97.30
32698;DHT22;19087;51.062;3.754;2023-09-08T10:38:34;30.40;97.80
32698;DHT22;19087;51.062;3.754;2023-09-08T10:41:38;30.40;97.20
32698;DHT22;19087;51.062;3.754;2023-09-08T10:44:07;30.50;97.30
32698;DHT22;19087;51.062;3.754;2023-09-08T10:46:37;30.40;97.50
32698;DHT22;19087;51.062;3.754;2023-09-08T10:49:04;30.50;97.10
32698;DHT22;19087;51.062;3.754;2023-09-08T10:51:32;30.50;97.10
32698;DHT22;19087;51.062;3.754;2023-09-08T10:53:58;30.60;96.90
32698;DHT22;19087;51.062;3.754;2023-09-08T10:59:29;30.50;96.90
32698;DHT22;19087;51.062;3.754;2023-09-08T11:02:04;30.60;96.80
32698;DHT22;19087;51.062;3.754;2023-09-08T11:04:31;30.50;97.00
32698;DHT22;19087;51.062;3.754;2023-09-08T11:07:01;30.60;97.20
32698;DHT22;19087;51.062;3.754;2023-09-08T11:09:27;30.80;97.40
32698;DHT22;19087;51.062;3.754;2023-09-08T11:11:53;31.00;97.30
32698;DHT22;19087;51.062;3.754;2023-09-08T11:14:21;31.00;96.80
32698;DHT22;19087;51.062;3.754;2023-09-08T11:16:47;31.00;96.90
32698;DHT22;19087;51.062;3.754;2023-09-08T11:19:13;31.10;97.20
32698;DHT22;19087;51.062;3.754;2023-09-08T11:21:40;31.10;96.80
32698;DHT22;19087;51.062;3.754;2023-09-08T11:24:06;31.20;95.50
32698;DHT22;19087;51.062;3.754;2023-09-08T11:26:35;31.10;95.40
32698;DHT22;19087;51.062;3.754;2023-09-08T11:29:01;31.20;95.70
32698;DHT22;19087;51.062;3.754;2023-09-08T11:31:26;31.20;96.70
32698;DHT22;19087;51.062;3.754;2023-09-08T11:33:55;31.40;96.90
32698;DHT22;19087;51.062;3.754;2023-09-08T11:36:21;31.50;96.60
32698;DHT22;19087;51.062;3.754;2023-09-08T11:38:46;31.70;96.60
32698;DHT22;19087;51.062;3.754;2023-09-08T11:41:12;31.70;96.30
32698;DHT22;19087;51.062;3.754;2023-09-08T11:43:39;31.80;96.10
32698;DHT22;19087;51.062;3.754;2023-09-08T11:46:05;31.80;95.40
32698;DHT22;19087;51.062;3.754;2023-09-08T11:48:31;31.90;96.10
32698;DHT22;19087;51.062;3.754;2023-09-08T11:50:57;31.90;95.90
32698;DHT22;19087;51.062;3.754;2023-09-08T11:53:24;32.00;95.80
32698;DHT22;19087;51.062;3.754;2023-09-08T11:55:50;32.10;95.30
32698;DHT22;19087;51.062;3.754;2023-09-08T11:58:18;32.10;94.80
32698;DHT22;19087;51.062;3.754;2023-09-08T12:00:46;32.20;94.20
32698;DHT22;19087;51.062;3.754;2023-09-08T12:03:15;32.20;93.90
32698;DHT22;19087;51.062;3.754;2023-09-08T12:05:43;32.10;93.80
32698;DHT22;19087;51.062;3.754;2023-09-08T12:08:10;32.10;93.90
32698;DHT22;19087;51.062;3.754;2023-09-08T12:10:43;32.10;94.20
32698;DHT22;19087;51.062;3.754;2023-09-08T12:13:09;32.10;94.30
32698;DHT22;19087;51.062;3.754;2023-09-08T12:15:40;32.10;94.60
32698;DHT22;19087;51.062;3.754;2023-09-08T12:18:12;32.00;94.40
32698;DHT22;19087;51.062;3.754;2023-09-08T12:20:40;31.90;94.80
32698;DHT22;19087;51.062;3.754;2023-09-08T12:23:20;32.00;94.90
32698;DHT22;19087;51.062;3.754;2023-09-08T12:25:49;32.00;94.00
32698;DHT22;19087;51.062;3.754;2023-09-08T12:28:18;32.10;93.70
32698;DHT22;19087;51.062;3.754;2023-09-08T12:30:44;32.10;93.60
32698;DHT22;19087;51.062;3.754;2023-09-08T12:33:10;32.10;93.90
32698;DHT22;19087;51.062;3.754;2023-09-08T12:35:37;32.10;93.70
32698;DHT22;19087;51.062;3.754;2023-09-08T12:38:04;32.20;94.50
32698;DHT22;19087;51.062;3.754;2023-09-08T12:40:34;32.20;93.70
32698;DHT22;19087;51.062;3.754;2023-09-08T12:43:00;31.80;94.40
32698;DHT22;19087;51.062;3.754;2023-09-08T12:45:28;32.00;95.10
32698;DHT22;19087;51.062;3.754;2023-09-08T12:47:58;32.10;94.20
32698;DHT22;19087;51.062;3.754;2023-09-08T12:50:24;32.20;92.90
32698;DHT22;19087;51.062;3.754;2023-09-08T12:52:50;32.30;91.50
32698;DHT22;19087;51.062;3.754;2023-09-08T12:55:16;32.30;91.70
32698;DHT22;19087;51.062;3.754;2023-09-08T12:57:43;32.40;91.90
32698;DHT22;19087;51.062;3.754;2023-09-08T13:00:09;32.40;91.50
32698;DHT22;19087;51.062;3.754;2023-09-08T13:02:35;32.50;90.00
32698;DHT22;19087;51.062;3.754;2023-09-08T13:05:02;32.40;90.30
32698;DHT22;19087;51.062;3.754;2023-09-08T13:07:28;32.50;89.60
32698;DHT22;19087;51.062;3.754;2023-09-08T13:09:55;32.50;89.40
32698;DHT22;19087;51.062;3.754;2023-09-08T13:12:22;32.40;87.80
32698;DHT22;19087;51.062;3.754;2023-09-08T13:14:48;32.40;86.40
32698;DHT22;19087;51.062;3.754;2023-09-08T13:17:14;32.30;87.20
32698;DHT22;19087;51.062;3.754;2023-09-08T13:19:41;32.30;88.40
32698;DHT22;19087;51.062;3.754;2023-09-08T13:22:07;32.30;88.40
32698;DHT22;19087;51.062;3.754;2023-09-08T13:24:33;32.30;89.40
32698;DHT22;19087;51.062;3.754;2023-09-08T13:27:00;32.30;88.40
32698;DHT22;19087;51.062;3.754;2023-09-08T13:29:26;32.30;88.00
32698;DHT22;19087;51.062;3.754;2023-09-08T13:31:53;32.20;89.10
32698;DHT22;19087;51.062;3.754;2023-09-08T13:34:20;32.10;90.00
32698;DHT22;19087;51.062;3.754;2023-09-08T13:36:46;32.30;90.20
32698;DHT22;19087;51.062;3.754;2023-09-08T13:39:12;32.40;90.30
32698;DHT22;19087;51.062;3.754;2023-09-08T13:41:49;32.40;90.10
32698;DHT22;19087;51.062;3.754;2023-09-08T13:44:16;32.50;90.50
32698;DHT22;19087;51.062;3.754;2023-09-08T13:46:45;32.60;89.90
32698;DHT22;19087;51.062;3.754;2023-09-08T13:49:11;32.60;90.20
32698;DHT22;19087;51.062;3.754;2023-09-08T13:51:37;32.60;90.70
32698;DHT22;19087;51.062;3.754;2023-09-08T13:54:04;32.70;90.10
32698;DHT22;19087;51.062;3.754;2023-09-08T13:56:30;32.70;90.00
32698;DHT22;19087;51.062;3.754;2023-09-08T13:58:58;32.80;90.00
32698;DHT22;19087;51.062;3.754;2023-09-08T14:01:23;32.80;87.50
32698;DHT22;19087;51.062;3.754;2023-09-08T14:03:50;32.80;87.90
32698;DHT22;19087;51.062;3.754;2023-09-08T14:06:18;32.90;88.20
32698;DHT22;19087;51.062;3.754;2023-09-08T14:08:44;32.80;87.60
32698;DHT22;19087;51.062;3.754;2023-09-08T14:11:10;32.80;87.30
32698;DHT22;19087;51.062;3.754;2023-09-08T14:13:38;32.80;88.30
32698;DHT22;19087;51.062;3.754;2023-09-08T14:16:03;32.70;87.10
32698;DHT22;19087;51.062;3.754;2023-09-08T14:18:30;32.70;87.80
32698;DHT22;19087;51.062;3.754;2023-09-08T14:20:56;32.70;88.00
32698;DHT22;19087;51.062;3.754;2023-09-08T14:23:22;32.70;88.50
32698;DHT22;19087;51.062;3.754;2023-09-08T14:25:47;32.70;88.70
32698;DHT22;19087;51.062;3.754;2023-09-08T14:28:14;32.80;88.50
32698;DHT22;19087;51.062;3.754;2023-09-08T14:30:40;32.90;88.40
32698;DHT22;19087;51.062;3.754;2023-09-08T14:33:08;33.00;88.30
32698;DHT22;19087;51.062;3.754;2023-09-08T14:35:40;33.00;88.50
32698;DHT22;19087;51.062;3.754;2023-09-08T14:38:22;33.00;87.60
32698;DHT22;19087;51.062;3.754;2023-09-08T14:40:59;32.90;87.80
32698;DHT22;19087;51.062;3.754;2023-09-08T14:43:26;33.00;86.80
32698;DHT22;19087;51.062;3.754;2023-09-08T14:45:53;32.90;84.80
32698;DHT22;19087;51.062;3.754;2023-09-08T14:48:19;32.90;84.50
32698;DHT22;19087;51.062;3.754;2023-09-08T14:50:45;32.90;84.70
32698;DHT22;19087;51.062;3.754;2023-09-08T14:53:11;32.70;85.30
32698;DHT22;19087;51.062;3.754;2023-09-08T14:55:37;32.70;86.10
32698;DHT22;19087;51.062;3.754;2023-09-08T14:58:03;32.70;85.20
32698;DHT22;19087;51.062;3.754;2023-09-08T15:00:31;32.60;86.10
32698;DHT22;19087;51.062;3.754;2023-09-08T15:02:57;32.50;85.50
32698;DHT22;19087;51.062;3.754;2023-09-08T15:05:23;32.50;85.00
32698;DHT22;19087;51.062;3.754;2023-09-08T15:07:49;32.40;86.00
32698;DHT22;19087;51.062;3.754;2023-09-08T15:10:15;32.40;86.90
32698;DHT22;19087;51.062;3.754;2023-09-08T15:12:41;32.50;86.70
32698;DHT22;19087;51.062;3.754;2023-09-08T15:15:12;32.50;85.90
32698;DHT22;19087;51.062;3.754;2023-09-08T15:17:38;32.50;83.60
32698;DHT22;19087;51.062;3.754;2023-09-08T15:20:06;32.50;81.80
32698;DHT22;19087;51.062;3.754;2023-09-08T15:22:32;32.40;82.30
32698;DHT22;19087;51.062;3.754;2023-09-08T15:24:57;32.30;80.90
32698;DHT22;19087;51.062;3.754;2023-09-08T15:27:23;32.40;81.50
32698;DHT22;19087;51.062;3.754;2023-09-08T15:29:49;32.40;80.80
32698;DHT22;19087;51.062;3.754;2023-09-08T15:32:14;32.30;81.50
32698;DHT22;19087;51.062;3.754;2023-09-08T15:34:40;32.40;82.00
32698;DHT22;19087;51.062;3.754;2023-09-08T15:37:06;32.20;81.10
32698;DHT22;19087;51.062;3.754;2023-09-08T15:39:31;32.20;80.30
32698;DHT22;19087;51.062;3.754;2023-09-08T15:41:58;32.20;80.20
32698;DHT22;19087;51.062;3.754;2023-09-08T15:44:24;32.20;81.50
32698;DHT22;19087;51.062;3.754;2023-09-08T15:46:49;32.20;82.10
32698;DHT22;19087;51.062;3.754;2023-09-08T15:49:15;32.20;82.70
32698;DHT22;19087;51.062;3.754;2023-09-08T15:51:41;32.20;83.40